Time;durP1;ratioP1;P1;durP2;ratioP2;P2;SDS_P1;SDS_P2;PMS_P1;PMS_P2;Temp;Humidity;BMP_temperature;BMP_pressure;BME280_temperature;BME280_humidity;BME280_pressure;Samples;Min_cycle;Max_cycle;Signal;HPM_P1;HPM_P2
2022/11/04 00:02:01;;;;;;;50.58;29.42;;;;;;;;;;5004243;28;20018;-76
2022/11/04 00:04:27;;;;;;;51.80;28.70;;;;;;;;;;5011099;28;20105;-77
2022/11/04 00:06:55;;;;;;;51.00;29.40;;;;;;;;;;5010999;28;20049;-78
2022/11/04 00:09:23;;;;;;;48.47;29.88;;;;;;;;;;5005862;28;20022;-78
2022/11/04 00:14:36;;;;;;;43.80;26.58;;;;;;;;;;5005292;28;20495;-78
2022/11/04 00:33:24;;;;;;;47.10;25.90;;;;;;;;;;5009644;28;20050;-78
2022/11/04 00:33:49;;;;;;;45.78;27.50;;;;;;;;;;5011098;28;20510;-78
2022/11/04 00:36:16;;;;;;;42.88;25.60;;;;;;;;;;5003965;28;20038;-78
2022/11/04 00:38:42;;;;;;;43.28;25.33;;;;;;;;;;5008890;28;20042;-76
2022/11/04 00:41:24;;;;;;;40.30;25.80;;;;;;;;;;5009626;28;20028;-77
2022/11/04 00:44:08;;;;;;;48.50;27.23;;;;;;;;;;5009569;28;20054;-77
2022/11/04 00:46:34;;;;;;;52.22;27.77;;;;;;;;;;5003243;28;20290;-76
2022/11/04 00:49:00;;;;;;;47.97;27.05;;;;;;;;;;5009474;28;20491;-78
2022/11/04 00:51:26;;;;;;;49.10;29.50;;;;;;;;;;5023922;28;20034;-76
2022/11/04 00:53:54;;;;;;;50.97;30.25;;;;;;;;;;5010783;28;20036;-79
2022/11/04 00:56:20;;;;;;;52.22;31.52;;;;;;;;;;5008508;28;20045;-78
2022/11/04 00:58:48;;;;;;;50.17;32.58;;;;;;;;;;5006819;28;20029;-77
2022/11/04 01:01:16;;;;;;;57.50;31.05;;;;;;;;;;5014729;28;20030;-77
2022/11/04 01:03:47;;;;;;;53.47;30.13;;;;;;;;;;5014254;28;20109;-77
2022/11/04 01:06:16;;;;;;;51.13;29.83;;;;;;;;;;5013965;28;20103;-77
2022/11/04 01:08:42;;;;;;;51.15;30.38;;;;;;;;;;5011033;28;20080;-77
2022/11/04 01:11:08;;;;;;;55.10;31.60;;;;;;;;;;5013894;28;20038;-76
2022/11/04 01:13:35;;;;;;;55.70;30.70;;;;;;;;;;5014137;28;20450;-77
2022/11/04 01:16:03;;;;;;;51.58;28.95;;;;;;;;;;5015992;28;20137;-77
2022/11/04 01:18:29;;;;;;;49.38;29.30;;;;;;;;;;5012610;28;20034;-77
2022/11/04 01:21:03;;;;;;;52.95;30.48;;;;;;;;;;5013105;28;20041;-77
2022/11/04 01:23:29;;;;;;;46.92;27.25;;;;;;;;;;5014033;28;20144;-78
2022/11/04 01:25:55;;;;;;;47.17;29.10;;;;;;;;;;5009062;28;20387;-77
2022/11/04 01:28:21;;;;;;;48.22;29.48;;;;;;;;;;5007957;28;20033;-78
2022/11/04 01:30:47;;;;;;;46.08;28.20;;;;;;;;;;5013715;28;20470;-77
2022/11/04 01:33:14;;;;;;;49.47;26.98;;;;;;;;;;5014957;28;20041;-77
2022/11/04 01:35:40;;;;;;;52.47;27.13;;;;;;;;;;5014669;28;20049;-77
2022/11/04 01:38:06;;;;;;;45.42;27.15;;;;;;;;;;5006478;28;20532;-78
2022/11/04 01:40:37;;;;;;;45.30;27.13;;;;;;;;;;5012661;28;20021;-77
2022/11/04 01:43:14;;;;;;;49.92;28.27;;;;;;;;;;5012682;28;20104;-78
2022/11/04 01:45:44;;;;;;;46.42;29.15;;;;;;;;;;5013899;28;20496;-77
2022/11/04 01:48:20;;;;;;;51.75;27.40;;;;;;;;;;5013684;28;20056;-78
2022/11/04 01:50:49;;;;;;;44.47;28.08;;;;;;;;;;5028996;28;20040;-77
2022/11/04 01:53:20;;;;;;;41.47;25.95;;;;;;;;;;5014003;28;20061;-78
2022/11/04 01:55:52;;;;;;;38.72;24.00;;;;;;;;;;5006266;28;20506;-77
2022/11/04 01:58:24;;;;;;;41.78;25.30;;;;;;;;;;5013280;28;20042;-78
2022/11/04 02:00:50;;;;;;;44.05;28.88;;;;;;;;;;5013534;28;20496;-78
2022/11/04 02:03:28;;;;;;;39.50;24.80;;;;;;;;;;5010921;28;20057;-79
2022/11/04 02:05:55;;;;;;;45.95;26.77;;;;;;;;;;5013832;28;20168;-77
2022/11/04 02:08:22;;;;;;;45.15;26.33;;;;;;;;;;5006703;28;20033;-77
2022/11/04 02:11:00;;;;;;;45.75;27.83;;;;;;;;;;5012916;28;20694;-77
2022/11/04 02:13:27;;;;;;;49.25;29.52;;;;;;;;;;5010009;28;20033;-76
2022/11/04 02:16:09;;;;;;;48.20;29.13;;;;;;;;;;5005722;28;20045;-77
2022/11/04 02:18:57;;;;;;;53.05;31.67;;;;;;;;;;5011754;28;20376;-77
2022/11/04 02:22:05;;;;;;;55.33;32.42;;;;;;;;;;5006842;28;20026;-77
2022/11/04 02:24:56;;;;;;;53.38;31.92;;;;;;;;;;5012836;28;20034;-78
2022/11/04 02:27:27;;;;;;;53.13;31.25;;;;;;;;;;5005970;28;20044;-77
2022/11/04 02:29:58;;;;;;;;;;;;;;;;;;5028119;28;20044;-77
2022/11/04 02:32:56;;;;;;;55.97;32.25;;;;;;;;;;5005173;28;19917;-76
2022/11/04 02:35:34;;;;;;;58.47;33.15;;;;;;;;;;5008948;28;20033;-78
2022/11/04 02:38:12;;;;;;;54.28;31.25;;;;;;;;;;5012654;28;20510;-77
2022/11/04 02:40:44;;;;;;;50.40;31.73;;;;;;;;;;5028260;28;20037;-77
2022/11/04 02:43:18;;;;;;;44.80;29.48;;;;;;;;;;5004915;28;20048;-78
2022/11/04 02:45:47;;;;;;;49.80;30.55;;;;;;;;;;5011591;28;20033;-78
2022/11/04 02:48:20;;;;;;;49.40;30.80;;;;;;;;;;5013034;28;20056;-78
2022/11/04 02:51:20;;;;;;;54.00;30.55;;;;;;;;;;5011567;28;20480;-78
2022/11/04 02:54:02;;;;;;;52.17;29.77;;;;;;;;;;4996900;28;20077;-78
2022/11/04 02:56:31;;;;;;;47.38;29.77;;;;;;;;;;5006003;28;20041;-77
2022/11/04 02:59:03;;;;;;;46.72;30.55;;;;;;;;;;5027985;28;20026;-77
2022/11/04 03:01:35;;;;;;;51.78;30.15;;;;;;;;;;5012044;28;20030;-77
2022/11/04 03:04:15;;;;;;;50.17;33.13;;;;;;;;;;5012165;28;20791;-78
2022/11/04 03:06:44;;;;;;;57.38;33.95;;;;;;;;;;5010736;28;20045;-79
2022/11/04 03:09:12;;;;;;;56.40;34.65;;;;;;;;;;5012279;28;20480;-79
2022/11/04 03:11:40;;;;;;;58.28;34.80;;;;;;;;;;5012514;28;20098;-78
2022/11/04 03:14:13;;;;;;;57.90;32.92;;;;;;;;;;5012467;28;20104;-78
2022/11/04 03:16:49;;;;;;;52.45;31.48;;;;;;;;;;5011980;28;20113;-78
2022/11/04 03:19:24;;;;;;;53.80;32.22;;;;;;;;;;4994831;28;20046;-77
2022/11/04 03:22:01;;;;;;;54.97;33.20;;;;;;;;;;5012438;28;20699;-78
2022/11/04 03:24:28;;;;;;;55.38;32.05;;;;;;;;;;5012358;28;20569;-78
2022/11/04 03:26:59;;;;;;;53.15;32.65;;;;;;;;;;5012654;28;20033;-78
2022/11/04 03:29:34;;;;;;;60.97;32.53;;;;;;;;;;5010997;28;20099;-78
2022/11/04 03:32:22;;;;;;;59.17;31.77;;;;;;;;;;5010818;28;20480;-77
2022/11/04 03:34:49;;;;;;;50.47;30.55;;;;;;;;;;5012263;28;20502;-76
2022/11/04 03:37:15;;;;;;;48.22;28.42;;;;;;;;;;5011115;28;20069;-77
2022/11/04 03:39:41;;;;;;;49.75;30.52;;;;;;;;;;5011014;28;20049;-77
2022/11/04 03:42:19;;;;;;;47.00;30.10;;;;;;;;;;5010479;28;20026;-77
2022/11/04 03:45:05;;;;;;;49.08;30.38;;;;;;;;;;5027058;28;20056;-78
2022/11/04 03:47:31;;;;;;;49.72;29.90;;;;;;;;;;5011514;28;20503;-78
2022/11/04 03:50:07;;;;;;;47.83;28.80;;;;;;;;;;5012083;28;20118;-77
2022/11/04 03:52:34;;;;;;;46.13;28.88;;;;;;;;;;5012120;28;20088;-78
2022/11/04 03:55:03;;;;;;;55.88;29.88;;;;;;;;;;5012055;28;20479;-77
2022/11/04 03:57:59;;;;;;;53.13;29.60;;;;;;;;;;4988194;28;20169;-77
2022/11/04 04:00:33;;;;;;;46.65;27.80;;;;;;;;;;5009556;28;20064;-78
2022/11/04 04:03:21;;;;;;;46.55;27.20;;;;;;;;;;5012164;28;20403;-76
2022/11/04 04:05:54;;;;;;;49.47;28.90;;;;;;;;;;5027108;28;20033;-78
2022/11/04 04:08:41;;;;;;;60.90;32.33;;;;;;;;;;5011980;28;20038;-78
2022/11/04 04:11:35;;;;;;;56.53;31.30;;;;;;;;;;5014929;28;20058;-77
2022/11/04 04:14:04;;;;;;;54.28;32.08;;;;;;;;;;5011489;28;20113;-76
2022/11/04 04:16:39;;;;;;;52.28;31.90;;;;;;;;;;5011179;28;20040;-78
2022/11/04 04:19:20;;;;;;;56.15;31.60;;;;;;;;;;4993948;28;20041;-78
2022/11/04 04:21:58;;;;;;;58.92;32.63;;;;;;;;;;4992335;28;20049;-77
2022/11/04 04:27:31;;;;;;;52.00;30.60;;;;;;;;;;4994240;28;20034;-78
2022/11/04 04:30:14;;;;;;;46.72;29.20;;;;;;;;;;5021418;28;20041;-78
2022/11/04 04:33:05;;;;;;;50.97;29.70;;;;;;;;;;5010972;28;20168;-78
2022/11/04 04:35:43;;;;;;;59.45;31.65;;;;;;;;;;5013037;28;20030;-77
2022/11/04 04:46:38;;;;;;;61.65;29.55;;;;;;;;;;4981645;28;20526;-77
2022/11/04 04:49:08;;;;;;;49.33;29.17;;;;;;;;;;5005618;28;20025;-76
2022/11/04 04:51:39;;;;;;;64.78;31.10;;;;;;;;;;5015048;28;20422;-78
2022/11/04 04:54:06;;;;;;;58.35;30.88;;;;;;;;;;5030233;28;20030;-77
2022/11/04 04:56:33;;;;;;;46.33;29.48;;;;;;;;;;5013795;28;20483;-77
2022/11/04 04:58:59;;;;;;;46.78;27.85;;;;;;;;;;5014020;28;20112;-78
2022/11/04 05:01:25;;;;;;;51.00;29.40;;;;;;;;;;5003916;28;20022;-78
2022/11/04 05:03:51;;;;;;;50.25;30.38;;;;;;;;;;4994995;28;20444;-78
2022/11/04 05:06:17;;;;;;;56.90;32.08;;;;;;;;;;4995818;28;20081;-78
2022/11/04 05:08:46;;;;;;;55.28;30.58;;;;;;;;;;4994511;28;20035;-76
2022/11/04 05:11:12;;;;;;;65.70;30.17;;;;;;;;;;4995413;28;20034;-76
2022/11/04 05:13:39;;;;;;;74.15;30.20;;;;;;;;;;4995427;28;20085;-77
2022/11/04 05:16:07;;;;;;;60.60;30.52;;;;;;;;;;4993602;28;20061;-77
2022/11/04 05:18:33;;;;;;;50.75;29.25;;;;;;;;;;4994721;28;20412;-77
2022/11/04 05:21:05;;;;;;;60.63;29.38;;;;;;;;;;4995508;28;20032;-78
2022/11/04 05:23:31;;;;;;;55.00;32.42;;;;;;;;;;4994753;28;20116;-78
2022/11/04 05:25:58;;;;;;;58.83;32.65;;;;;;;;;;4994003;28;20192;-77
2022/11/04 05:28:24;;;;;;;61.97;33.83;;;;;;;;;;4995776;28;20036;-80
2022/11/04 05:30:49;;;;;;;60.63;31.75;;;;;;;;;;4994911;28;20102;-79
2022/11/04 05:33:17;;;;;;;57.40;32.95;;;;;;;;;;4994274;28;20149;-78
2022/11/04 05:35:43;;;;;;;62.38;32.88;;;;;;;;;;4995228;28;20021;-78
2022/11/04 05:38:09;;;;;;;70.97;33.25;;;;;;;;;;4994631;28;20066;-78
2022/11/04 05:40:35;;;;;;;66.18;32.60;;;;;;;;;;4994973;28;20030;-79
2022/11/04 05:43:01;;;;;;;50.15;30.33;;;;;;;;;;4995170;28;20034;-77
2022/11/04 05:45:28;;;;;;;59.03;30.92;;;;;;;;;;5013963;28;20054;-78
2022/11/04 05:48:01;;;;;;;50.00;28.63;;;;;;;;;;5014337;28;20046;-78
2022/11/04 05:50:30;;;;;;;53.95;28.65;;;;;;;;;;4980775;28;20038;-77
2022/11/04 05:53:00;;;;;;;56.40;28.73;;;;;;;;;;4996589;28;20076;-78
2022/11/04 05:55:26;;;;;;;60.35;30.85;;;;;;;;;;5013873;28;20030;-78
2022/11/04 05:57:52;;;;;;;48.28;29.20;;;;;;;;;;5013869;28;20084;-78
2022/11/04 06:00:20;;;;;;;44.90;27.98;;;;;;;;;;5013768;28;20076;-77
2022/11/04 06:02:46;;;;;;;46.42;28.48;;;;;;;;;;5013506;28;20041;-79
2022/11/04 06:05:12;;;;;;;48.80;28.17;;;;;;;;;;5014234;28;20110;-78
2022/11/04 06:07:38;;;;;;;56.17;30.48;;;;;;;;;;5014746;28;20484;-78
2022/11/04 06:10:06;;;;;;;58.40;29.88;;;;;;;;;;4996252;28;20133;-79
2022/11/04 06:12:32;;;;;;;46.50;27.52;;;;;;;;;;5013669;28;20033;-78
2022/11/04 06:14:58;;;;;;;59.03;30.73;;;;;;;;;;5014209;28;20038;-78
2022/11/04 06:17:24;;;;;;;51.42;28.75;;;;;;;;;;4995987;28;20387;-78
2022/11/04 06:19:50;;;;;;;55.03;30.25;;;;;;;;;;5013471;28;20391;-78
2022/11/04 06:22:19;;;;;;;53.00;29.63;;;;;;;;;;5014996;28;20097;-78
2022/11/04 06:24:45;;;;;;;49.85;28.15;;;;;;;;;;5033159;28;20112;-78
2022/11/04 06:27:15;;;;;;;55.97;28.95;;;;;;;;;;5000971;28;20064;-78
2022/11/04 06:29:41;;;;;;;50.38;28.10;;;;;;;;;;5012132;28;20050;-77
2022/11/04 06:32:09;;;;;;;62.25;31.13;;;;;;;;;;4994978;28;20029;-79
2022/11/04 06:34:35;;;;;;;54.78;29.30;;;;;;;;;;5013442;28;20117;-78
2022/11/04 06:37:02;;;;;;;57.67;28.67;;;;;;;;;;5013125;28;20095;-78
2022/11/04 06:39:29;;;;;;;48.35;26.80;;;;;;;;;;5012758;28;20033;-78
2022/11/04 06:41:57;;;;;;;48.85;27.80;;;;;;;;;;5012808;28;20106;-78
2022/11/04 06:44:24;;;;;;;49.40;31.10;;;;;;;;;;4979343;28;20062;-78
2022/11/04 06:46:51;;;;;;;47.33;27.27;;;;;;;;;;5013487;28;20032;-78
2022/11/04 06:49:20;;;;;;;54.28;29.95;;;;;;;;;;5012869;28;20029;-78
2022/11/04 06:51:48;;;;;;;61.30;28.33;;;;;;;;;;5013047;28;20364;-77
2022/11/04 06:54:16;;;;;;;49.70;26.80;;;;;;;;;;5013176;28;20037;-78
2022/11/04 06:56:43;;;;;;;52.58;27.33;;;;;;;;;;5012972;28;20036;-76
2022/11/04 06:59:22;;;;;;;46.08;25.83;;;;;;;;;;4995586;28;20113;-78
2022/11/04 07:01:51;;;;;;;47.83;26.02;;;;;;;;;;5012773;28;20092;-78
2022/11/04 07:04:18;;;;;;;46.70;24.83;;;;;;;;;;4995071;28;20047;-78
2022/11/04 07:06:45;;;;;;;51.00;25.40;;;;;;;;;;5011640;28;20095;-78
2022/11/04 07:09:14;;;;;;;44.15;24.63;;;;;;;;;;4978564;28;20056;-78
2022/11/04 07:11:42;;;;;;;44.00;26.40;;;;;;;;;;5012488;28;20038;-78
2022/11/04 07:14:11;;;;;;;43.42;23.85;;;;;;;;;;5011723;28;20025;-77
2022/11/04 07:16:38;;;;;;;39.03;25.50;;;;;;;;;;5009673;28;20030;-78
2022/11/04 07:19:05;;;;;;;41.75;25.02;;;;;;;;;;5011891;28;20025;-78
2022/11/04 07:21:31;;;;;;;42.63;24.75;;;;;;;;;;4978503;28;20041;-78
2022/11/04 07:24:01;;;;;;;41.00;24.65;;;;;;;;;;5012142;28;20022;-78
2022/11/04 07:26:27;;;;;;;43.50;23.73;;;;;;;;;;5010952;28;20091;-78
2022/11/04 07:28:53;;;;;;;41.83;24.33;;;;;;;;;;5011049;28;20026;-77
2022/11/04 07:31:18;;;;;;;40.53;24.08;;;;;;;;;;5011873;28;20041;-77
2022/11/04 07:33:48;;;;;;;38.47;23.85;;;;;;;;;;5012016;28;20060;-78
2022/11/04 07:36:16;;;;;;;38.72;23.10;;;;;;;;;;4997068;28;20418;-78
2022/11/04 07:38:43;;;;;;;42.03;22.58;;;;;;;;;;5011898;28;20061;-78
2022/11/04 07:41:12;;;;;;;37.28;22.60;;;;;;;;;;5007407;28;20088;-78
2022/11/04 07:43:39;;;;;;;39.97;22.77;;;;;;;;;;4994306;28;20054;-76
2022/11/04 07:46:10;;;;;;;35.55;21.60;;;;;;;;;;5012345;28;20033;-78
2022/11/04 07:48:37;;;;;;;39.17;21.88;;;;;;;;;;5009565;28;20042;-78
2022/11/04 07:51:06;;;;;;;37.03;22.33;;;;;;;;;;5011820;28;20395;-78
2022/11/04 07:53:32;;;;;;;34.58;20.98;;;;;;;;;;5008343;28;20037;-79
2022/11/04 07:56:04;;;;;;;38.38;20.15;;;;;;;;;;5008808;28;20025;-78
2022/11/04 07:58:34;;;;;;;34.00;21.77;;;;;;;;;;4992472;28;20062;-78
2022/11/04 08:01:02;;;;;;;32.92;21.55;;;;;;;;;;4992853;28;20482;-79
2022/11/04 08:03:29;;;;;;;41.95;21.15;;;;;;;;;;5010992;28;20052;-78
2022/11/04 08:06:02;;;;;;;41.30;20.77;;;;;;;;;;5007901;28;20053;-79
2022/11/04 08:08:28;;;;;;;33.20;19.52;;;;;;;;;;5009719;28;20479;-79
2022/11/04 08:10:57;;;;;;;37.95;18.75;;;;;;;;;;5010673;28;20117;-79
2022/11/04 08:13:29;;;;;;;37.30;20.60;;;;;;;;;;5010833;28;20329;-79
2022/11/04 08:15:56;;;;;;;31.98;18.70;;;;;;;;;;5005104;28;20030;-79
2022/11/04 08:18:25;;;;;;;34.20;19.15;;;;;;;;;;5001468;28;20025;-78
2022/11/04 08:20:52;;;;;;;38.83;19.95;;;;;;;;;;5011133;28;20026;-77
2022/11/04 08:23:19;;;;;;;39.42;20.42;;;;;;;;;;4994231;28;20041;-79
2022/11/04 08:25:46;;;;;;;32.58;18.63;;;;;;;;;;5008869;28;20084;-78
2022/11/04 08:28:16;;;;;;;33.95;19.67;;;;;;;;;;5008037;28;20422;-78
2022/11/04 08:30:59;;;;;;;40.08;19.65;;;;;;;;;;4992575;28;20179;-80
2022/11/04 08:33:26;;;;;;;38.30;20.10;;;;;;;;;;4990474;28;20414;-77
2022/11/04 08:35:54;;;;;;;39.70;18.40;;;;;;;;;;5010710;28;20099;-78
2022/11/04 08:38:21;;;;;;;27.98;18.13;;;;;;;;;;5010968;28;20061;-78
2022/11/04 08:40:47;;;;;;;30.65;18.95;;;;;;;;;;5012350;28;20096;-79
2022/11/04 08:43:13;;;;;;;35.53;17.85;;;;;;;;;;4977116;28;20510;-78
2022/11/04 08:45:40;;;;;;;32.95;17.77;;;;;;;;;;5020340;28;20395;-78
2022/11/04 08:48:07;;;;;;;40.15;17.70;;;;;;;;;;5030104;28;20038;-78
2022/11/04 08:50:33;;;;;;;32.95;17.45;;;;;;;;;;5016313;28;20388;-77
2022/11/04 08:53:03;;;;;;;33.70;19.70;;;;;;;;;;5009822;28;20041;-78
2022/11/04 08:55:30;;;;;;;32.83;16.75;;;;;;;;;;5010335;28;20604;-79
2022/11/04 08:57:57;;;;;;;30.90;17.80;;;;;;;;;;5021098;28;20435;-78
2022/11/04 09:00:26;;;;;;;28.58;16.73;;;;;;;;;;4991106;28;20109;-78
2022/11/04 09:02:54;;;;;;;31.52;16.55;;;;;;;;;;4999082;28;20080;-79
2022/11/04 09:05:21;;;;;;;26.85;17.27;;;;;;;;;;5010405;28;20112;-78
2022/11/04 09:07:48;;;;;;;24.02;15.40;;;;;;;;;;5010255;28;20104;-79
2022/11/04 09:10:16;;;;;;;28.17;16.10;;;;;;;;;;5011213;28;20034;-78
2022/11/04 09:12:44;;;;;;;28.23;16.13;;;;;;;;;;5012203;28;20041;-79
2022/11/04 09:15:11;;;;;;;24.77;14.57;;;;;;;;;;5000413;28;20038;-79
2022/11/04 09:17:37;;;;;;;25.15;15.52;;;;;;;;;;5015193;28;20033;-79
2022/11/04 09:20:06;;;;;;;31.60;15.60;;;;;;;;;;5014963;28;20069;-78
2022/11/04 09:22:32;;;;;;;24.15;15.68;;;;;;;;;;5029998;28;20033;-78
2022/11/04 09:24:59;;;;;;;28.05;15.65;;;;;;;;;;5011110;28;20038;-79
2022/11/04 09:27:29;;;;;;;24.92;14.98;;;;;;;;;;5014818;28;20361;-79
2022/11/04 09:29:56;;;;;;;29.45;17.58;;;;;;;;;;5014856;28;20042;-79
2022/11/04 09:32:23;;;;;;;36.28;19.33;;;;;;;;;;5014459;28;20104;-76
2022/11/04 09:34:50;;;;;;;32.92;21.33;;;;;;;;;;5004524;28;20041;-78
2022/11/04 09:37:16;;;;;;;34.65;21.33;;;;;;;;;;4997179;28;20578;-78
2022/11/04 09:39:42;;;;;;;34.45;20.23;;;;;;;;;;5013910;28;20514;-77
2022/11/04 09:42:40;;;;;;;28.70;17.92;;;;;;;;;;5029688;28;20030;-78
2022/11/04 09:45:14;;;;;;;33.05;17.95;;;;;;;;;;5012806;28;20053;-78
2022/11/04 09:47:45;;;;;;;34.90;18.73;;;;;;;;;;4995230;28;20065;-79
2022/11/04 09:50:43;;;;;;;27.00;17.40;;;;;;;;;;4984280;28;20037;-79
2022/11/04 09:53:22;;;;;;;34.63;17.90;;;;;;;;;;5013908;28;20042;-78
2022/11/04 09:55:49;;;;;;;39.83;20.33;;;;;;;;;;5014470;28;20107;-78
2022/11/04 09:58:15;;;;;;;31.17;19.10;;;;;;;;;;5013750;28;20029;-79
2022/11/04 10:00:49;;;;;;;30.15;20.70;;;;;;;;;;5012499;28;20099;-79
2022/11/04 10:03:47;;;;;;;29.65;19.80;;;;;;;;;;5014351;28;20033;-78
2022/11/04 10:06:32;;;;;;;40.10;20.15;;;;;;;;;;5013317;28;20107;-78
2022/11/04 10:09:22;;;;;;;30.98;20.92;;;;;;;;;;5012898;28;20460;-79
2022/11/04 10:12:20;;;;;;;37.22;21.60;;;;;;;;;;5014219;28;20104;-78
2022/11/04 10:15:24;;;;;;;36.90;23.75;;;;;;;;;;5006611;28;20124;-78
2022/11/04 10:17:57;;;;;;;37.23;23.03;;;;;;;;;;5024308;28;20116;-78
2022/11/04 10:20:51;;;;;;;42.40;24.10;;;;;;;;;;5013959;28;20285;-78
2022/11/04 10:23:37;;;;;;;38.83;25.40;;;;;;;;;;5013902;28;20042;-78
2022/11/04 10:26:16;;;;;;;37.30;24.40;;;;;;;;;;5011351;28;20030;-78
2022/11/04 10:29:00;;;;;;;37.50;23.58;;;;;;;;;;5013481;28;20076;-80
2022/11/04 10:31:27;;;;;;;39.80;24.50;;;;;;;;;;5009804;28;20041;-78
2022/11/04 10:34:07;;;;;;;41.88;26.17;;;;;;;;;;4995209;28;20168;-79
2022/11/04 10:36:38;;;;;;;40.47;25.35;;;;;;;;;;4996375;28;20420;-78
2022/11/04 10:39:15;;;;;;;36.78;22.73;;;;;;;;;;5013454;28;20068;-78
2022/11/04 10:41:44;;;;;;;37.47;23.63;;;;;;;;;;5013630;28;20117;-77
2022/11/04 10:44:19;;;;;;;37.50;23.00;;;;;;;;;;5012731;28;20049;-78
2022/11/04 10:47:26;;;;;;;39.00;24.40;;;;;;;;;;5001201;28;20037;-79
2022/11/04 10:49:58;;;;;;;41.40;24.42;;;;;;;;;;5015060;28;20026;-80
2022/11/04 10:52:27;;;;;;;39.72;23.48;;;;;;;;;;5030019;28;20558;-80
2022/11/04 10:54:53;;;;;;;35.80;20.90;;;;;;;;;;5014739;28;20040;-79
2022/11/04 11:11:48;;;;;;;29.23;18.48;;;;;;;;;;5042326;28;20594;-68
2022/11/04 11:14:26;;;;;;;35.95;19.10;;;;;;;;;;5057712;28;20037;-67
2022/11/04 11:16:53;;;;;;;31.88;18.35;;;;;;;;;;5049531;28;20555;-68
2022/11/04 11:19:21;;;;;;;41.42;17.23;;;;;;;;;;5029384;28;20577;-69
2022/11/04 11:21:53;;;;;;;25.77;16.25;;;;;;;;;;5507102;22;20533;-70
2022/11/04 11:24:20;;;;;;;30.90;17.38;;;;;;;;;;4990756;28;20045;-69
2022/11/04 11:26:49;;;;;;;34.40;17.15;;;;;;;;;;5010978;28;20029;-73
2022/11/04 11:29:41;;;;;;;27.98;16.38;;;;;;;;;;4994167;28;20157;-70
2022/11/04 11:32:42;;;;;;;34.58;16.92;;;;;;;;;;4991865;28;20034;-69
2022/11/04 11:35:20;;;;;;;35.40;16.75;;;;;;;;;;4982881;28;20123;-68
2022/11/04 11:37:47;;;;;;;35.60;16.15;;;;;;;;;;5012974;28;20033;-68
2022/11/04 11:40:43;;;;;;;32.63;15.90;;;;;;;;;;5010506;28;20030;-70
2022/11/04 11:43:25;;;;;;;27.55;15.15;;;;;;;;;;4991725;28;20041;-70
2022/11/04 11:45:56;;;;;;;31.53;16.20;;;;;;;;;;5009511;28;20437;-70
2022/11/04 11:48:39;;;;;;;29.10;15.35;;;;;;;;;;5012146;28;20065;-70
2022/11/04 11:51:06;;;;;;;30.88;15.40;;;;;;;;;;4994153;28;20084;-72
2022/11/04 11:53:34;;;;;;;25.95;15.02;;;;;;;;;;5019337;28;20447;-71
2022/11/04 11:56:29;;;;;;;37.40;16.45;;;;;;;;;;5011963;28;20030;-72
2022/11/04 11:59:14;;;;;;;37.05;15.60;;;;;;;;;;5006403;28;20108;-72
2022/11/04 12:02:04;;;;;;;37.03;16.20;;;;;;;;;;5011249;28;20067;-72
2022/11/04 12:04:31;;;;;;;32.22;15.30;;;;;;;;;;4989515;28;20406;-71
2022/11/04 12:07:12;;;;;;;30.67;14.77;;;;;;;;;;5015201;28;20048;-72
2022/11/04 12:10:02;;;;;;;29.88;15.95;;;;;;;;;;5011281;28;20422;-69
2022/11/04 12:12:39;;;;;;;29.38;13.75;;;;;;;;;;5003172;28;20045;-71
2022/11/04 12:15:07;;;;;;;27.48;14.23;;;;;;;;;;5010318;28;20109;-71
2022/11/04 12:18:16;;;;;;;39.58;15.95;;;;;;;;;;5011622;28;20034;-73
2022/11/04 12:20:58;;;;;;;45.72;16.25;;;;;;;;;;5011391;28;20056;-72
2022/11/04 12:24:01;;;;;;;37.50;15.82;;;;;;;;;;5010382;28;20049;-70
2022/11/04 12:26:40;;;;;;;40.80;16.50;;;;;;;;;;5009988;28;20030;-71
2022/11/04 12:29:21;;;;;;;45.13;13.77;;;;;;;;;;4976132;28;20030;-71
2022/11/04 12:32:10;;;;;;;45.90;15.05;;;;;;;;;;5006758;28;20025;-72
2022/11/04 12:35:14;;;;;;;37.00;13.52;;;;;;;;;;5010165;28;20030;-71
2022/11/04 12:38:07;;;;;;;33.33;13.07;;;;;;;;;;5007162;28;20037;-71
2022/11/04 12:40:42;;;;;;;;;;;;;;;;;;5011417;28;20472;-71
2022/11/04 12:43:43;;;;;;;41.60;13.85;;;;;;;;;;5009464;28;20047;-71
2022/11/04 12:46:28;;;;;;;35.38;12.15;;;;;;;;;;4989674;28;20050;-72
2022/11/04 12:49:26;;;;;;;33.88;13.35;;;;;;;;;;5034314;28;20041;-71
2022/11/04 12:52:18;;;;;;;34.88;11.38;;;;;;;;;;5029044;28;20045;-73
2022/11/04 12:55:10;;;;;;;35.97;11.48;;;;;;;;;;5016183;28;20406;-72
2022/11/04 12:58:20;;;;;;;39.00;12.80;;;;;;;;;;5003992;28;20033;-72
2022/11/04 13:00:53;;;;;;;40.33;11.57;;;;;;;;;;5033680;28;20061;-72
2022/11/04 13:03:34;;;;;;;37.15;12.15;;;;;;;;;;5032733;28;20045;-71
2022/11/04 13:06:18;;;;;;;33.25;12.10;;;;;;;;;;5034462;28;20113;-70
2022/11/04 13:08:50;;;;;;;34.70;11.27;;;;;;;;;;5033452;28;20047;-71
2022/11/04 13:11:26;;;;;;;52.00;12.05;;;;;;;;;;5035962;28;20030;-71
2022/11/04 13:14:09;;;;;;;27.92;11.20;;;;;;;;;;5014568;28;20394;-71
2022/11/04 13:16:40;;;;;;;29.15;11.57;;;;;;;;;;5014810;28;20033;-71
2022/11/04 13:19:27;;;;;;;30.77;11.75;;;;;;;;;;5037219;28;20041;-71
2022/11/04 13:21:56;;;;;;;28.98;10.98;;;;;;;;;;5026534;28;20557;-71
2022/11/04 13:24:31;;;;;;;31.88;11.82;;;;;;;;;;5033368;28;20491;-72
2022/11/04 13:27:02;;;;;;;35.55;12.90;;;;;;;;;;5016138;28;20056;-71
2022/11/04 13:29:29;;;;;;;38.00;12.32;;;;;;;;;;5042571;28;20037;-71
2022/11/04 13:32:10;;;;;;;39.05;12.38;;;;;;;;;;5034231;28;20022;-72
2022/11/04 13:34:57;;;;;;;35.92;11.55;;;;;;;;;;5034932;28;20394;-72
2022/11/04 13:37:25;;;;;;;32.17;12.85;;;;;;;;;;5038805;28;20037;-71
2022/11/04 13:39:58;;;;;;;32.28;11.48;;;;;;;;;;5034600;28;20025;-71
2022/11/04 13:42:35;;;;;;;31.35;10.68;;;;;;;;;;5033367;28;20478;-71
2022/11/04 13:45:11;;;;;;;29.83;11.43;;;;;;;;;;5042469;28;20111;-71
2022/11/04 13:47:57;;;;;;;31.00;12.23;;;;;;;;;;5029408;28;20041;-71
2022/11/04 13:50:34;;;;;;;27.13;11.75;;;;;;;;;;5016557;28;20053;-70
2022/11/04 13:53:03;;;;;;;28.13;11.00;;;;;;;;;;5038557;28;20025;-71
2022/11/04 13:55:29;;;;;;;25.50;11.18;;;;;;;;;;5026749;28;20479;-69
2022/11/04 13:57:58;;;;;;;27.23;10.82;;;;;;;;;;5034914;28;20498;-72
2022/11/04 14:00:32;;;;;;;31.38;10.90;;;;;;;;;;5033494;28;20022;-74
2022/11/04 14:03:37;;;;;;;34.17;12.82;;;;;;;;;;5031389;28;20026;-71
2022/11/04 14:06:06;;;;;;;31.67;13.07;;;;;;;;;;5033542;28;20183;-72
2022/11/04 14:08:33;;;;;;;26.88;11.82;;;;;;;;;;5033744;28;20125;-71
2022/11/04 14:11:08;;;;;;;24.67;11.98;;;;;;;;;;5034557;28;20037;-71
2022/11/04 14:13:40;;;;;;;26.35;12.10;;;;;;;;;;5035314;28;20112;-70
2022/11/04 14:16:10;;;;;;;28.00;11.82;;;;;;;;;;5034419;28;20025;-71
2022/11/04 14:18:45;;;;;;;29.65;12.30;;;;;;;;;;5033821;28;20051;-71
2022/11/04 14:21:14;;;;;;;25.92;11.82;;;;;;;;;;5034139;28;20033;-68
2022/11/04 14:23:46;;;;;;;32.67;12.68;;;;;;;;;;5016808;28;20039;-71
2022/11/04 14:26:18;;;;;;;27.17;12.40;;;;;;;;;;5016618;28;20037;-70
2022/11/04 14:28:49;;;;;;;32.90;14.55;;;;;;;;;;5034520;28;20505;-71
2022/11/04 14:31:36;;;;;;;35.75;15.45;;;;;;;;;;5034000;28;20121;-70
2022/11/04 14:34:03;;;;;;;39.42;15.85;;;;;;;;;;5033772;28;20418;-70
2022/11/04 14:36:38;;;;;;;43.67;18.20;;;;;;;;;;5032352;28;20033;-71
2022/11/04 14:39:19;;;;;;;41.53;18.42;;;;;;;;;;5012667;28;20048;-72
2022/11/04 14:41:49;;;;;;;45.17;19.50;;;;;;;;;;5024775;28;20495;-71
2022/11/04 14:44:42;;;;;;;42.85;24.25;;;;;;;;;;5031828;28;20441;-71
2022/11/04 14:47:29;;;;;;;44.88;24.40;;;;;;;;;;5026508;28;20034;-71
2022/11/04 14:49:58;;;;;;;46.28;23.63;;;;;;;;;;5032313;28;20050;-71
2022/11/04 14:53:03;;;;;;;50.03;21.48;;;;;;;;;;5016213;28;20502;-70
2022/11/04 14:55:31;;;;;;;35.35;17.58;;;;;;;;;;4952160;28;20058;-71
2022/11/04 14:58:24;;;;;;;47.50;18.85;;;;;;;;;;5014059;28;20043;-72
2022/11/04 15:01:01;;;;;;;35.33;18.13;;;;;;;;;;5023257;28;20053;-73
2022/11/04 15:03:33;;;;;;;43.53;22.20;;;;;;;;;;5035452;28;20052;-69
2022/11/04 15:06:02;;;;;;;43.38;23.30;;;;;;;;;;5034336;28;20045;-72
2022/11/04 15:08:36;;;;;;;39.63;24.73;;;;;;;;;;5025618;28;20489;-72
2022/11/04 15:12:49;;;;;;;44.97;24.55;;;;;;;;;;5006574;28;20046;-72
2022/11/04 15:14:19;;;;;;;42.03;25.90;;;;;;;;;;5013448;28;20133;-74
2022/11/04 15:16:48;;;;;;;63.80;30.25;;;;;;;;;;5011356;28;20033;-72
2022/11/04 15:19:38;;;;;;;47.40;29.17;;;;;;;;;;5012326;28;20092;-71
2022/11/04 15:22:05;;;;;;;55.78;32.47;;;;;;;;;;4997099;28;20041;-72
2022/11/04 15:24:33;;;;;;;58.00;32.95;;;;;;;;;;5012793;28;20399;-72
2022/11/04 15:27:05;;;;;;;60.28;32.00;;;;;;;;;;5011404;28;20052;-73
2022/11/04 15:29:31;;;;;;;45.75;28.20;;;;;;;;;;5018220;28;20391;-72
2022/11/04 15:32:01;;;;;;;43.13;24.40;;;;;;;;;;4994619;28;20052;-72
2022/11/04 15:34:29;;;;;;;43.33;24.40;;;;;;;;;;5011638;28;20036;-73
2022/11/04 15:37:02;;;;;;;39.20;22.95;;;;;;;;;;5012022;28;20360;-73
2022/11/04 15:39:44;;;;;;;41.20;22.85;;;;;;;;;;5010901;28;20117;-73